»·PEaware :: CSQ1186 KBZN-KBIL

CSQ1186 :: KBZN-KBIL

FLIGHT INFORMATION

Flight Status: Arrived
Operator: Unknown
More flights by this operator :: More flights under this callsign
Pilot: Ernesto F. (37009)
Aircraft: SAAB 340
(SF34)
More flights by this aircraft type
Origin: KBZN Gallatin
United States
Destination: KBIL Billings Logan Intl
United States
More flights between these airports :: More routes between these airports
Route: BZN6 BZN V86 BIL
File this flight plan on PilotEdge
Remarks: RMK / SIMBRIEF
Altitude:
(Current/Filed)
17,000ft
Speed:
(Current/Filed)
281kts
Departed: 29-Apr-22 09:59 AM
Arrived: 29-Apr-22 10:45 AM
Distance/Time
Traveled:
110nm/0:46
Distance/Time
To Go:
Arrived

Flight Plot

Page will automatically refresh every two minutes.

Flight plan parsing failed; only flown route is shown


Map Options




Map Legend


Flown Route
Filed Route
Departure Airport
Arrival Airport
Navaid (VOR, NDB)
Fix

Horizontal Profiles

Position Reports

Time Latitude Longitude Heading Altitude Ground
Speed
29-Apr-22 09:09 45.767584 -111.146083 315 4471ft 0kts
29-Apr-22 09:10 45.767584 -111.146083 315 4471ft 0kts
29-Apr-22 09:11 45.767584 -111.146083 315 4471ft 0kts
29-Apr-22 09:12 45.767584 -111.146083 315 4471ft 0kts
29-Apr-22 09:13 45.767584 -111.146083 315 4471ft 0kts
29-Apr-22 09:14 45.767584 -111.146083 315 4471ft 0kts
29-Apr-22 09:15 45.767584 -111.146083 315 4471ft 0kts
29-Apr-22 09:16 45.767584 -111.146083 315 4471ft 0kts
29-Apr-22 09:17 45.767584 -111.146083 315 4471ft 0kts
29-Apr-22 09:18 45.767584 -111.146083 315 4471ft 0kts
29-Apr-22 09:19 45.767584 -111.146083 315 4471ft 0kts
29-Apr-22 09:20 45.767584 -111.146083 315 4471ft 0kts
29-Apr-22 09:21 45.767584 -111.146083 315 4471ft 0kts
29-Apr-22 09:22 45.767584 -111.146083 315 4471ft 0kts
29-Apr-22 09:23 45.767584 -111.146083 315 4471ft 0kts
29-Apr-22 09:24 45.767584 -111.146083 315 4471ft 0kts
29-Apr-22 09:25 45.767584 -111.146083 315 4471ft 0kts
29-Apr-22 09:26 45.767584 -111.146083 315 4471ft 0kts
29-Apr-22 09:27 45.767584 -111.146083 315 4471ft 0kts
29-Apr-22 09:28 45.767584 -111.146083 315 4471ft 0kts
29-Apr-22 09:29 45.767584 -111.146083 315 4471ft 0kts
29-Apr-22 09:30 45.767584 -111.146083 315 4471ft 0kts
29-Apr-22 09:31 45.767584 -111.146083 315 4471ft 0kts
29-Apr-22 09:32 45.767584 -111.146083 315 4471ft 0kts
29-Apr-22 09:33 45.767584 -111.146083 315 4471ft 0kts
29-Apr-22 09:34 45.767584 -111.146083 315 4471ft 0kts
29-Apr-22 09:35 45.767584 -111.146083 315 4471ft 0kts
29-Apr-22 09:36 45.767584 -111.146083 315 4471ft 0kts
29-Apr-22 09:37 45.767584 -111.146083 315 4471ft 0kts
29-Apr-22 09:38 45.767584 -111.146083 315 4471ft 0kts
29-Apr-22 09:39 45.767584 -111.146083 315 4471ft 0kts
29-Apr-22 09:41 45.767584 -111.146083 315 4471ft 0kts
29-Apr-22 09:42 45.767584 -111.146083 315 4471ft 0kts
29-Apr-22 09:43 45.767584 -111.146083 315 4471ft 0kts
29-Apr-22 09:44 45.767584 -111.146083 315 4471ft 0kts
29-Apr-22 09:45 45.767584 -111.146083 315 4471ft 0kts
29-Apr-22 09:46 45.767584 -111.146083 315 4471ft 0kts
29-Apr-22 09:47 45.767584 -111.146083 315 4471ft 0kts
29-Apr-22 09:48 45.767584 -111.146083 315 4471ft 0kts
29-Apr-22 09:49 45.767584 -111.146083 315 4471ft 0kts
29-Apr-22 09:50 45.767584 -111.146083 315 4471ft 0kts
29-Apr-22 09:51 45.767584 -111.146083 315 4471ft 0kts
29-Apr-22 09:52 45.767584 -111.146083 315 4471ft 0kts
29-Apr-22 09:53 45.767715 -111.146245 326 4471ft 0kts
29-Apr-22 09:54 45.768581 -111.146406 3 4469ft 2kts
29-Apr-22 09:55 45.771370 -111.147369 320 4465ft 7kts
29-Apr-22 09:56 45.774266 -111.151355 315 4461ft 11kts
29-Apr-22 09:57 45.779244 -111.158292 314 4451ft 32kts
29-Apr-22 09:58 45.785218 -111.166568 314 4436ft 26kts
29-Apr-22 09:59 45.781613 -111.157472 135 4445ft 128kts
29-Apr-22 10:00 45.746447 -111.137441 230 6180ft 160kts
29-Apr-22 10:01 45.736492 -111.200868 270 8079ft 170kts
29-Apr-22 10:01 45.730888 -111.257136 270 9423ft 175kts
29-Apr-22 10:03 45.712483 -111.334974 255 11363ft 168kts
29-Apr-22 10:04 45.691448 -111.396661 252 12515ft 183kts
29-Apr-22 10:05 45.667310 -111.461873 251 13704ft 185kts
29-Apr-22 10:06 45.684062 -111.493960 44 14479ft 188kts
29-Apr-22 10:06 45.699986 -111.432073 64 15214ft 202kts
29-Apr-22 10:07 45.720289 -111.356927 64 16029ft 206kts
29-Apr-22 10:09 45.747629 -111.268037 58 16723ft 216kts
29-Apr-22 10:10 45.773053 -111.187356 59 16978ft 233kts
29-Apr-22 10:11 45.775539 -111.098432 141 17009ft 271kts
29-Apr-22 10:11 45.725135 -111.041480 135 16998ft 279kts
29-Apr-22 10:12 45.673116 -110.958762 134 17000ft 281kts
29-Apr-22 10:13 45.640321 -110.865986 64 16976ft 279kts
29-Apr-22 10:15 45.668296 -110.741263 78 16967ft 289kts
29-Apr-22 10:15 45.679235 -110.646534 78 16940ft 291kts
29-Apr-22 10:16 45.692097 -110.532056 78 16934ft 291kts
29-Apr-22 10:17 45.703709 -110.416954 82 16936ft 292kts
29-Apr-22 10:18 45.711402 -110.301025 83 16938ft 293kts
29-Apr-22 10:19 45.718877 -110.185549 83 16970ft 293kts
29-Apr-22 10:20 45.730591 -110.071476 93 16994ft 294kts
29-Apr-22 10:21 45.729924 -109.954786 80 16969ft 293kts
29-Apr-22 10:22 45.735736 -109.838430 81 16970ft 294kts
29-Apr-22 10:23 45.744814 -109.722110 82 16970ft 294kts
29-Apr-22 10:24 45.753389 -109.605322 82 16834ft 299kts
29-Apr-22 10:25 45.761625 -109.483275 83 15944ft 309kts
29-Apr-22 10:26 45.768645 -109.360922 83 14972ft 302kts
29-Apr-22 10:27 45.774992 -109.245662 82 14958ft 283kts
29-Apr-22 10:28 45.781567 -109.133639 82 14887ft 285kts
29-Apr-22 10:29 45.766686 -109.018696 104 13503ft 295kts
29-Apr-22 10:30 45.743165 -108.914941 104 11705ft 266kts
29-Apr-22 10:31 45.720454 -108.815313 103 10956ft 254kts
29-Apr-22 10:32 45.698115 -108.717448 103 10124ft 273kts
29-Apr-22 10:33 45.674451 -108.611000 104 9013ft 270kts
29-Apr-22 10:34 45.651339 -108.506096 103 7351ft 254kts
29-Apr-22 10:35 45.630802 -108.411080 103 6941ft 231kts
29-Apr-22 10:36 45.636994 -108.331826 63 6964ft 206kts
29-Apr-22 10:37 45.674009 -108.274391 22 6418ft 197kts
29-Apr-22 10:38 45.717620 -108.294084 323 5964ft 175kts
29-Apr-22 10:39 45.751534 -108.337215 303 5939ft 146kts
29-Apr-22 10:40 45.767072 -108.390864 297 5531ft 145kts
29-Apr-22 10:41 45.781651 -108.443094 297 4759ft 137kts
29-Apr-22 10:42 45.795749 -108.493934 295 4022ft 135kts
29-Apr-22 10:43 45.806892 -108.533763 289 3655ft 51kts
29-Apr-22 10:44 45.805850 -108.537249 115 3655ft 13kts
29-Apr-22 10:45 45.803473 -108.531303 181 3655ft 0kts

Navigation Log

Ident Type
Flight plan parsing failed, navigation log unavailable